Time;durP1;ratioP1;P1;durP2;ratioP2;P2;SDS_P1;SDS_P2;PMS_P1;PMS_P2;Temp;Humidity;BMP_temperature;BMP_pressure;BME280_temperature;BME280_humidity;BME280_pressure;Samples;Min_cycle;Max_cycle;Signal;HPM_P1;HPM_P2
2023/06/24 00:00:21;;;;;;;13.15;6.05;;;;;;;;;;2040555;29;20028;-91
2023/06/24 00:01:22;;;;;;;10.18;6.18;;;;;;;;;;2040288;29;20059;-91
2023/06/24 00:02:25;;;;;;;7.80;5.40;;;;;;;;;;2048625;29;20063;-90
2023/06/24 00:03:26;;;;;;;10.32;5.40;;;;;;;;;;2049102;28;20038;-91
2023/06/24 00:04:27;;;;;;;8.63;5.70;;;;;;;;;;2049331;28;20498;-91
2023/06/24 00:05:27;;;;;;;6.57;5.55;;;;;;;;;;2049539;29;20034;-91
2023/06/24 00:06:27;;;;;;;10.00;4.95;;;;;;;;;;2048424;29;20104;-90
2023/06/24 00:07:28;;;;;;;6.53;5.45;;;;;;;;;;2048935;29;20541;-91
2023/06/24 00:08:34;;;;;;;6.95;5.45;;;;;;;;;;2049760;29;20444;-91
2023/06/24 00:09:34;;;;;;;6.53;5.45;;;;;;;;;;2049090;29;20418;-91
2023/06/24 00:10:34;;;;;;;9.32;5.53;;;;;;;;;;2054652;29;20038;-90
2023/06/24 00:11:35;;;;;;;8.60;5.05;;;;;;;;;;2058068;29;20098;-89
2023/06/24 00:12:37;;;;;;;8.30;5.68;;;;;;;;;;2058372;28;20166;-90
2023/06/24 00:13:37;;;;;;;7.75;5.80;;;;;;;;;;2057162;29;20034;-86
2023/06/24 00:14:38;;;;;;;8.10;5.60;;;;;;;;;;2052657;29;20050;-90
2023/06/24 00:15:42;;;;;;;6.80;5.35;;;;;;;;;;2049451;28;20098;-90
2023/06/24 00:16:43;;;;;;;7.32;5.18;;;;;;;;;;2048624;29;20031;-90
2023/06/24 00:17:43;;;;;;;7.60;4.88;;;;;;;;;;2048481;29;20058;-91
2023/06/24 00:18:44;;;;;;;6.10;5.10;;;;;;;;;;2048637;29;20130;-90
2023/06/24 00:19:44;;;;;;;7.97;5.45;;;;;;;;;;2049976;29;20485;-90
2023/06/24 00:20:44;;;;;;;8.50;5.50;;;;;;;;;;2049173;29;20031;-91
2023/06/24 00:21:45;;;;;;;8.45;5.72;;;;;;;;;;2040704;29;20472;-90
2023/06/24 00:22:48;;;;;;;6.30;5.28;;;;;;;;;;2048498;29;20423;-91
2023/06/24 00:23:49;;;;;;;6.03;5.43;;;;;;;;;;1685065;29;10452037;-90
2023/06/24 00:24:50;;;;;;;8.90;5.03;;;;;;;;;;2040434;29;20033;-90
2023/06/24 00:25:54;;;;;;;7.13;5.72;;;;;;;;;;2040762;29;20118;-90
2023/06/24 00:26:56;;;;;;;7.97;5.75;;;;;;;;;;2041070;29;20082;-91
2023/06/24 00:27:57;;;;;;;7.55;5.70;;;;;;;;;;2048400;29;20106;-90
2023/06/24 00:28:59;;;;;;;10.73;5.75;;;;;;;;;;2049301;28;20043;-90
2023/06/24 00:29:59;;;;;;;8.48;5.97;;;;;;;;;;2048478;29;20037;-91
2023/06/24 00:31:01;;;;;;;9.48;5.68;;;;;;;;;;2048417;29;20074;-90
2023/06/24 00:32:01;;;;;;;10.20;5.80;;;;;;;;;;2048503;29;20471;-90
2023/06/24 00:33:02;;;;;;;8.75;5.53;;;;;;;;;;2048495;29;20027;-90
2023/06/24 00:34:03;;;;;;;6.63;5.65;;;;;;;;;;2053479;29;20015;-90
2023/06/24 00:35:03;;;;;;;7.50;6.00;;;;;;;;;;2057156;29;20082;-90
2023/06/24 00:36:06;;;;;;;6.82;5.88;;;;;;;;;;2058959;28;20135;-89
2023/06/24 00:37:07;;;;;;;7.80;5.88;;;;;;;;;;2057418;28;20038;-90
2023/06/24 00:38:07;;;;;;;9.90;5.80;;;;;;;;;;2057851;29;20026;-90
2023/06/24 00:39:09;;;;;;;6.43;5.30;;;;;;;;;;2056400;29;20261;-91
2023/06/24 00:40:14;;;;;;;7.20;5.63;;;;;;;;;;2043139;29;20031;-90
2023/06/24 00:41:20;;;;;;;7.28;6.07;;;;;;;;;;2043377;29;20038;-90
2023/06/24 00:42:23;;;;;;;7.03;5.28;;;;;;;;;;2042103;29;20031;-90
2023/06/24 00:43:24;;;;;;;6.25;5.25;;;;;;;;;;2041009;29;20031;-90
2023/06/24 00:44:24;;;;;;;7.40;5.95;;;;;;;;;;2048302;29;20468;-90
2023/06/24 00:45:25;;;;;;;7.28;5.38;;;;;;;;;;2048436;29;20042;-90
2023/06/24 00:46:26;;;;;;;6.28;5.45;;;;;;;;;;2045798;29;20424;-90
2023/06/24 00:47:26;;;;;;;9.52;6.00;;;;;;;;;;2048292;29;20190;-91
2023/06/24 00:48:27;;;;;;;11.65;6.30;;;;;;;;;;2040537;29;20043;-90
2023/06/24 00:49:27;;;;;;;7.30;6.00;;;;;;;;;;2048893;29;20074;-91
2023/06/24 00:50:28;;;;;;;8.10;6.20;;;;;;;;;;2049677;29;20158;-91
2023/06/24 00:51:33;;;;;;;7.88;5.90;;;;;;;;;;2048529;29;20027;-91
2023/06/24 00:52:36;;;;;;;9.60;5.78;;;;;;;;;;2050588;29;20031;-90
2023/06/24 00:53:37;;;;;;;10.85;6.07;;;;;;;;;;2044116;29;20031;-90
2023/06/24 00:54:37;;;;;;;6.88;5.90;;;;;;;;;;2051432;29;20487;-90
2023/06/24 00:55:38;;;;;;;7.65;5.70;;;;;;;;;;2056843;28;20038;-90
2023/06/24 00:56:38;;;;;;;9.88;6.43;;;;;;;;;;2055107;29;20106;-90
2023/06/24 00:57:43;;;;;;;7.78;5.90;;;;;;;;;;2052457;29;20197;-91
2023/06/24 00:58:47;;;;;;;9.10;6.60;;;;;;;;;;2048788;29;20348;-90
2023/06/24 00:59:47;;;;;;;10.85;5.90;;;;;;;;;;2049697;28;20415;-89
2023/06/24 01:00:56;;;;;;;9.05;5.80;;;;;;;;;;2051919;29;20023;-89
2023/06/24 01:01:57;;;;;;;8.27;6.47;;;;;;;;;;2042638;29;20023;-88
2023/06/24 01:02:58;;;;;;;8.95;5.53;;;;;;;;;;2048605;29;20039;-88
2023/06/24 01:04:00;;;;;;;7.90;5.78;;;;;;;;;;2050330;28;20023;-89
2023/06/24 01:05:00;;;;;;;9.43;6.15;;;;;;;;;;2050305;29;20027;-87
2023/06/24 01:06:01;;;;;;;11.35;8.18;;;;;;;;;;2049963;29;20023;-89
2023/06/24 01:07:02;;;;;;;8.05;5.97;;;;;;;;;;2048639;29;20046;-88
2023/06/24 01:08:02;;;;;;;10.63;6.55;;;;;;;;;;2048408;29;20035;-91
2023/06/24 01:09:04;;;;;;;10.50;6.53;;;;;;;;;;2048634;29;20475;-90
2023/06/24 01:10:06;;;;;;;9.27;6.45;;;;;;;;;;2048415;29;20130;-91
2023/06/24 01:11:07;;;;;;;12.60;6.38;;;;;;;;;;2049197;29;20475;-91
2023/06/24 01:12:09;;;;;;;12.13;5.95;;;;;;;;;;2048399;29;20037;-90
2023/06/24 01:13:09;;;;;;;10.85;5.80;;;;;;;;;;2048646;29;20059;-90
2023/06/24 01:14:09;;;;;;;12.30;5.88;;;;;;;;;;2048439;29;20023;-90
2023/06/24 01:15:11;;;;;;;8.48;6.05;;;;;;;;;;2048234;29;20239;-90
2023/06/24 01:16:42;;;;;;;8.95;6.43;;;;;;;;;;2048333;29;20038;-90
2023/06/24 01:18:08;;;;;;;11.70;6.60;;;;;;;;;;2048197;29;20050;-90
2023/06/24 01:19:50;;;;;;;11.73;6.53;;;;;;;;;;2048454;29;20105;-90
2023/06/24 01:21:25;;;;;;;10.55;5.75;;;;;;;;;;2049028;29;20050;-90
2023/06/24 01:22:47;;;;;;;10.65;6.43;;;;;;;;;;2049429;28;20035;-90
2023/06/24 01:24:02;;;;;;;10.68;6.53;;;;;;;;;;2048468;29;20098;-90
2023/06/24 01:25:27;;;;;;;9.07;6.00;;;;;;;;;;2048727;29;20030;-90
2023/06/24 01:26:41;;;;;;;9.98;6.43;;;;;;;;;;2049164;29;20097;-90
2023/06/24 01:28:04;;;;;;;10.00;6.03;;;;;;;;;;2048131;29;20372;-91
2023/06/24 01:29:16;;;;;;;10.90;6.45;;;;;;;;;;2042847;29;20027;-90
2023/06/24 01:30:21;;;;;;;7.18;5.88;;;;;;;;;;2041522;29;20035;-90
2023/06/24 01:31:28;;;;;;;8.48;6.03;;;;;;;;;;2048182;29;20127;-90
2023/06/24 01:32:44;;;;;;;6.97;5.80;;;;;;;;;;2047923;29;20503;-91
2023/06/24 01:33:59;;;;;;;7.60;5.60;;;;;;;;;;2042391;29;20023;-91
2023/06/24 01:35:07;;;;;;;8.35;6.45;;;;;;;;;;2048241;29;20027;-91
2023/06/24 01:36:11;;;;;;;8.25;6.78;;;;;;;;;;2048763;29;20023;-91
2023/06/24 01:37:20;;;;;;;8.57;6.00;;;;;;;;;;2048619;29;20027;-91
2023/06/24 01:38:34;;;;;;;7.38;6.13;;;;;;;;;;2047806;29;20038;-91
2023/06/24 01:39:46;;;;;;;8.65;5.88;;;;;;;;;;2048009;29;20070;-91
2023/06/24 01:40:48;;;;;;;9.93;6.57;;;;;;;;;;2048239;29;20055;-91
2023/06/24 01:41:59;;;;;;;7.47;5.85;;;;;;;;;;2040254;29;20066;-91
2023/06/24 01:43:02;;;;;;;6.13;5.36;;;;;;;;;;1687595;29;10549364;-91
2023/06/24 01:44:04;;;;;;;7.70;6.20;;;;;;;;;;2047974;29;20038;-91
2023/06/24 01:45:09;;;;;;;7.53;5.70;;;;;;;;;;2048037;29;20031;-91
2023/06/24 01:46:12;;;;;;;9.10;5.65;;;;;;;;;;2048717;28;20129;-90
2023/06/24 01:47:16;;;;;;;7.90;5.82;;;;;;;;;;2048016;29;20034;-91
2023/06/24 01:48:22;;;;;;;8.40;6.07;;;;;;;;;;2041764;29;20042;-89
2023/06/24 01:49:25;;;;;;;8.95;6.53;;;;;;;;;;2050450;29;20038;-91
2023/06/24 01:50:26;;;;;;;7.65;5.90;;;;;;;;;;2040036;29;20046;-90
2023/06/24 01:51:28;;;;;;;12.20;6.80;;;;;;;;;;2039595;29;20118;-91
2023/06/24 01:52:30;;;;;;;9.02;6.00;;;;;;;;;;2047640;29;20077;-91
2023/06/24 01:53:34;;;;;;;8.40;6.55;;;;;;;;;;2047518;29;20031;-91
2023/06/24 01:54:38;;;;;;;8.63;5.90;;;;;;;;;;2047474;29;20119;-91
2023/06/24 01:55:41;;;;;;;15.57;7.05;;;;;;;;;;2047510;29;20090;-91
2023/06/24 01:56:43;;;;;;;8.68;6.03;;;;;;;;;;2040188;29;20062;-91
2023/06/24 01:57:46;;;;;;;7.53;6.05;;;;;;;;;;2047408;29;20030;-91
2023/06/24 01:58:48;;;;;;;12.18;6.20;;;;;;;;;;2047842;29;20471;-91
2023/06/24 01:59:51;;;;;;;7.90;5.90;;;;;;;;;;2048517;29;20019;-91
2023/06/24 02:00:52;;;;;;;6.65;5.70;;;;;;;;;;2048011;29;20046;-91
2023/06/24 02:01:54;;;;;;;8.52;6.20;;;;;;;;;;2039758;29;20464;-91
2023/06/24 02:02:55;;;;;;;8.88;6.25;;;;;;;;;;2039940;29;20028;-91
2023/06/24 02:03:58;;;;;;;10.20;6.55;;;;;;;;;;2048065;29;20106;-91
2023/06/24 02:05:01;;;;;;;7.47;5.70;;;;;;;;;;2048440;29;20029;-90
2023/06/24 02:06:03;;;;;;;7.55;5.65;;;;;;;;;;2048247;28;20533;-91
2023/06/24 02:07:04;;;;;;;8.02;6.20;;;;;;;;;;2047556;29;20388;-90
2023/06/24 02:08:06;;;;;;;10.48;6.03;;;;;;;;;;2047634;29;20023;-91
2023/06/24 02:09:07;;;;;;;9.30;6.00;;;;;;;;;;2047501;29;20019;-91
2023/06/24 02:10:09;;;;;;;8.45;6.10;;;;;;;;;;2039553;29;20031;-91
2023/06/24 02:11:11;;;;;;;9.05;6.38;;;;;;;;;;2039760;29;20030;-91
2023/06/24 02:12:12;;;;;;;9.48;5.78;;;;;;;;;;2047032;28;20443;-91
2023/06/24 02:13:13;;;;;;;10.35;6.53;;;;;;;;;;2048296;29;20526;-91
2023/06/24 02:14:17;;;;;;;8.00;5.70;;;;;;;;;;2047263;29;20030;-91
2023/06/24 02:15:19;;;;;;;9.52;6.15;;;;;;;;;;2047552;29;20027;-91
2023/06/24 02:16:21;;;;;;;9.95;6.47;;;;;;;;;;2055099;28;20034;-92
2023/06/24 02:17:25;;;;;;;9.02;6.20;;;;;;;;;;2047156;29;20566;-89
2023/06/24 02:18:27;;;;;;;8.75;6.47;;;;;;;;;;2039887;29;20028;-90
2023/06/24 02:19:30;;;;;;;9.50;6.28;;;;;;;;;;2039704;29;20047;-90
2023/06/24 02:20:34;;;;;;;10.40;6.35;;;;;;;;;;2039752;29;20198;-90
2023/06/24 02:21:36;;;;;;;10.38;6.35;;;;;;;;;;2039682;29;20055;-90
2023/06/24 02:22:39;;;;;;;7.25;6.20;;;;;;;;;;2039558;29;20063;-91
2023/06/24 02:23:40;;;;;;;8.52;6.38;;;;;;;;;;2039837;29;20035;-92
2023/06/24 02:24:41;;;;;;;10.10;6.85;;;;;;;;;;2047657;29;20023;-91
2023/06/24 02:25:43;;;;;;;11.88;8.32;;;;;;;;;;2047618;29;20031;-91
2023/06/24 02:26:44;;;;;;;8.95;6.57;;;;;;;;;;2047617;29;20046;-91
2023/06/24 02:27:46;;;;;;;9.95;7.20;;;;;;;;;;2048331;28;20025;-92
2023/06/24 02:28:47;;;;;;;10.02;6.88;;;;;;;;;;2048374;29;20027;-91
2023/06/24 02:29:48;;;;;;;13.55;6.25;;;;;;;;;;2047572;29;20023;-91
2023/06/24 02:30:49;;;;;;;16.77;7.35;;;;;;;;;;2047336;29;20062;-90
2023/06/24 02:31:49;;;;;;;8.00;6.22;;;;;;;;;;2048041;28;20027;-90
2023/06/24 02:32:51;;;;;;;6.57;5.57;;;;;;;;;;2047905;29;20031;-91
2023/06/24 02:33:51;;;;;;;10.50;6.63;;;;;;;;;;2047342;29;20034;-91
2023/06/24 02:34:52;;;;;;;8.30;6.75;;;;;;;;;;2039455;29;20491;-90
2023/06/24 02:35:53;;;;;;;8.55;6.15;;;;;;;;;;2047703;29;20507;-89
2023/06/24 02:36:53;;;;;;;8.50;6.32;;;;;;;;;;2052468;28;20566;-91
2023/06/24 02:37:54;;;;;;;8.10;6.45;;;;;;;;;;2047645;29;20575;-92
2023/06/24 02:38:55;;;;;;;8.55;6.40;;;;;;;;;;2047518;29;20046;-91
2023/06/24 02:39:57;;;;;;;8.57;5.97;;;;;;;;;;2048364;29;20027;-91
2023/06/24 02:40:58;;;;;;;9.27;6.90;;;;;;;;;;2047890;29;20034;-91
2023/06/24 02:41:59;;;;;;;7.97;6.00;;;;;;;;;;2047439;29;20046;-90
2023/06/24 02:42:59;;;;;;;10.15;7.05;;;;;;;;;;2047837;29;20501;-90
2023/06/24 02:44:00;;;;;;;8.63;6.13;;;;;;;;;;2048049;29;20031;-91
2023/06/24 02:45:01;;;;;;;10.43;6.32;;;;;;;;;;2047931;29;20038;-91
2023/06/24 02:46:03;;;;;;;8.95;6.22;;;;;;;;;;2048467;28;20020;-90
2023/06/24 02:47:05;;;;;;;9.82;6.57;;;;;;;;;;2047412;29;20019;-91
2023/06/24 02:48:07;;;;;;;7.82;5.97;;;;;;;;;;2048702;29;20019;-90
2023/06/24 02:49:10;;;;;;;7.22;6.00;;;;;;;;;;2050110;28;20027;-89
2023/06/24 02:50:12;;;;;;;8.50;6.20;;;;;;;;;;2048846;29;20051;-90
2023/06/24 02:51:12;;;;;;;13.15;7.45;;;;;;;;;;2039672;29;20039;-91
2023/06/24 02:52:14;;;;;;;10.10;6.68;;;;;;;;;;2047594;29;20058;-90
2023/06/24 02:53:15;;;;;;;10.48;6.63;;;;;;;;;;2047768;29;20043;-91
2023/06/24 02:54:16;;;;;;;9.52;6.75;;;;;;;;;;2047443;29;20055;-91
2023/06/24 02:55:17;;;;;;;7.70;5.80;;;;;;;;;;2047429;29;20031;-90
2023/06/24 02:56:20;;;;;;;8.25;6.40;;;;;;;;;;2047357;29;20082;-91
2023/06/24 02:57:22;;;;;;;11.20;6.35;;;;;;;;;;2047510;29;20030;-91
2023/06/24 02:58:31;;;;;;;17.55;6.78;;;;;;;;;;2047187;29;20125;-90
2023/06/24 02:59:31;;;;;;;6.72;6.03;;;;;;;;;;2040452;29;20037;-90
2023/06/24 03:00:33;;;;;;;6.97;6.22;;;;;;;;;;2047526;29;20035;-90
2023/06/24 03:01:38;;;;;;;9.70;6.53;;;;;;;;;;2047811;28;20031;-90
2023/06/24 03:02:39;;;;;;;8.95;6.32;;;;;;;;;;2051971;29;20367;-90
2023/06/24 03:03:41;;;;;;;7.57;6.13;;;;;;;;;;2057637;28;20039;-90
2023/06/24 03:04:42;;;;;;;7.63;6.05;;;;;;;;;;2057842;28;20027;-91
2023/06/24 03:05:44;;;;;;;9.50;6.47;;;;;;;;;;2057450;28;20019;-90
2023/06/24 03:06:49;;;;;;;10.10;6.03;;;;;;;;;;2057751;28;20035;-90
2023/06/24 03:07:49;;;;;;;10.48;6.70;;;;;;;;;;2049896;29;20044;-90
2023/06/24 03:08:50;;;;;;;8.77;6.57;;;;;;;;;;2050104;29;20564;-90
2023/06/24 03:09:51;;;;;;;11.15;6.57;;;;;;;;;;2048598;29;20034;-91
2023/06/24 03:10:56;;;;;;;8.07;6.10;;;;;;;;;;2053823;29;20041;-89
2023/06/24 03:11:56;;;;;;;9.85;6.78;;;;;;;;;;2057206;28;20027;-89
2023/06/24 03:12:57;;;;;;;8.85;6.53;;;;;;;;;;2057233;29;20062;-88
2023/06/24 03:13:58;;;;;;;11.05;6.43;;;;;;;;;;2056655;29;20034;-89
2023/06/24 03:14:58;;;;;;;9.93;6.75;;;;;;;;;;2051683;29;20027;-90
2023/06/24 03:15:58;;;;;;;9.38;6.53;;;;;;;;;;2048691;28;20639;-90
2023/06/24 03:16:59;;;;;;;8.75;6.72;;;;;;;;;;2048557;29;20027;-90
2023/06/24 03:17:59;;;;;;;10.30;7.05;;;;;;;;;;2048425;29;20086;-90
2023/06/24 03:19:00;;;;;;;10.27;6.85;;;;;;;;;;2047238;29;20023;-90
2023/06/24 03:20:00;;;;;;;9.15;6.47;;;;;;;;;;2047710;29;20515;-90
2023/06/24 03:21:01;;;;;;;9.20;6.25;;;;;;;;;;2048480;28;20035;-90
2023/06/24 03:22:02;;;;;;;10.15;6.63;;;;;;;;;;2049070;29;20464;-90
2023/06/24 03:23:02;;;;;;;8.20;6.63;;;;;;;;;;2048163;29;20118;-90
2023/06/24 03:24:03;;;;;;;8.48;6.80;;;;;;;;;;2057733;28;20015;-89
2023/06/24 03:25:04;;;;;;;8.40;6.47;;;;;;;;;;2059332;28;20007;-90
2023/06/24 03:26:05;;;;;;;8.27;6.38;;;;;;;;;;2058642;29;20007;-90
2023/06/24 03:27:06;;;;;;;13.15;7.47;;;;;;;;;;2058425;29;20023;-91
2023/06/24 03:28:07;;;;;;;8.25;6.82;;;;;;;;;;2053346;29;20140;-90
2023/06/24 03:29:08;;;;;;;9.30;7.32;;;;;;;;;;2053591;29;20031;-90
2023/06/24 03:30:10;;;;;;;8.75;7.15;;;;;;;;;;2050515;29;20035;-90
2023/06/24 03:31:11;;;;;;;9.80;6.70;;;;;;;;;;2049510;29;20102;-90
2023/06/24 03:32:11;;;;;;;8.63;6.55;;;;;;;;;;2049019;29;20150;-90
2023/06/24 03:33:16;;;;;;;8.32;6.97;;;;;;;;;;2041010;29;20058;-90
2023/06/24 03:34:17;;;;;;;10.52;7.30;;;;;;;;;;2041126;29;20531;-90
2023/06/24 03:35:18;;;;;;;8.77;6.95;;;;;;;;;;2048962;29;20066;-90
2023/06/24 03:36:18;;;;;;;12.88;7.13;;;;;;;;;;2048809;29;20031;-90
2023/06/24 03:37:18;;;;;;;14.27;7.55;;;;;;;;;;2048830;29;20171;-90
2023/06/24 03:38:19;;;;;;;9.63;6.55;;;;;;;;;;2049385;29;20122;-90
2023/06/24 03:39:20;;;;;;;13.75;7.43;;;;;;;;;;2049531;29;20099;-90
2023/06/24 03:40:20;;;;;;;11.30;7.22;;;;;;;;;;2048599;29;20086;-90
2023/06/24 03:41:21;;;;;;;9.77;6.70;;;;;;;;;;2048766;29;20527;-90
2023/06/24 03:42:21;;;;;;;15.93;7.28;;;;;;;;;;2048608;29;20023;-89
2023/06/24 03:43:22;;;;;;;13.25;7.22;;;;;;;;;;2048904;29;20027;-90
2023/06/24 03:44:22;;;;;;;16.13;7.70;;;;;;;;;;2048599;29;20038;-90
2023/06/24 03:45:23;;;;;;;11.82;6.93;;;;;;;;;;2048661;29;20553;-90
2023/06/24 03:46:23;;;;;;;12.27;7.53;;;;;;;;;;2049231;29;20108;-90
2023/06/24 03:47:23;;;;;;;12.38;6.80;;;;;;;;;;2048697;29;20031;-90
2023/06/24 03:48:24;;;;;;;11.30;6.95;;;;;;;;;;2048623;29;20059;-90
2023/06/24 03:49:24;;;;;;;11.10;7.15;;;;;;;;;;2048665;29;20027;-90
2023/06/24 03:50:25;;;;;;;8.57;6.70;;;;;;;;;;2040876;29;20107;-90
2023/06/24 03:51:25;;;;;;;11.80;7.30;;;;;;;;;;2048732;28;20057;-90
2023/06/24 03:52:26;;;;;;;11.85;6.97;;;;;;;;;;2049282;29;20069;-90
2023/06/24 03:53:26;;;;;;;9.45;6.63;;;;;;;;;;2048477;29;20038;-90
2023/06/24 03:54:27;;;;;;;9.35;6.80;;;;;;;;;;2048768;29;20055;-90
2023/06/24 03:55:27;;;;;;;10.75;6.38;;;;;;;;;;1695406;29;10476972;-89
2023/06/24 03:56:28;;;;;;;9.32;7.25;;;;;;;;;;2047140;29;20306;-89
2023/06/24 03:57:28;;;;;;;8.35;6.38;;;;;;;;;;2049294;28;20059;-90
2023/06/24 03:58:28;;;;;;;12.02;7.15;;;;;;;;;;2048434;29;20097;-90
2023/06/24 03:59:31;;;;;;;11.23;6.72;;;;;;;;;;2048726;29;20031;-91
2023/06/24 04:00:32;;;;;;;10.20;6.60;;;;;;;;;;2049226;28;20083;-89
2023/06/24 04:01:32;;;;;;;11.95;6.93;;;;;;;;;;2048605;29;20027;-90
2023/06/24 04:02:33;;;;;;;11.00;7.10;;;;;;;;;;2048808;29;20027;-91
2023/06/24 04:03:33;;;;;;;9.02;6.15;;;;;;;;;;2048546;29;20432;-90
2023/06/24 04:04:37;;;;;;;9.27;7.05;;;;;;;;;;2048688;29;20070;-90
2023/06/24 04:05:38;;;;;;;10.65;7.63;;;;;;;;;;2049406;28;20027;-91
2023/06/24 04:06:38;;;;;;;8.07;7.28;;;;;;;;;;2049423;28;20440;-90
2023/06/24 04:07:39;;;;;;;11.10;8.43;;;;;;;;;;2049438;29;20053;-91
2023/06/24 04:08:39;;;;;;;15.48;8.27;;;;;;;;;;2048806;29;20042;-90
2023/06/24 04:09:40;;;;;;;10.07;7.20;;;;;;;;;;2048189;29;20106;-91
2023/06/24 04:10:43;;;;;;;11.60;7.78;;;;;;;;;;2048991;29;20555;-91
2023/06/24 04:11:43;;;;;;;9.60;7.75;;;;;;;;;;2048607;28;20040;-89
2023/06/24 04:12:44;;;;;;;9.45;7.32;;;;;;;;;;2052586;29;20558;-91
2023/06/24 04:13:47;;;;;;;10.05;7.90;;;;;;;;;;2040640;29;20027;-90
2023/06/24 04:14:48;;;;;;;10.18;7.97;;;;;;;;;;2041219;29;20479;-91
2023/06/24 04:15:49;;;;;;;8.27;7.38;;;;;;;;;;2048830;29;20102;-91
2023/06/24 04:16:50;;;;;;;12.35;7.78;;;;;;;;;;2048689;29;20189;-90
2023/06/24 04:17:50;;;;;;;10.45;7.45;;;;;;;;;;2040700;29;20027;-91
2023/06/24 04:18:50;;;;;;;10.93;7.60;;;;;;;;;;2048616;29;20074;-90
2023/06/24 04:19:51;;;;;;;13.98;8.10;;;;;;;;;;2049512;29;20105;-91
2023/06/24 04:20:52;;;;;;;14.10;8.30;;;;;;;;;;2049424;29;20031;-89
2023/06/24 04:21:53;;;;;;;12.02;7.60;;;;;;;;;;2048945;29;20035;-90
2023/06/24 04:22:53;;;;;;;8.60;6.57;;;;;;;;;;2048607;29;20122;-90
2023/06/24 04:23:54;;;;;;;10.70;8.55;;;;;;;;;;2048712;29;20063;-91
2023/06/24 04:24:54;;;;;;;11.40;7.72;;;;;;;;;;2048650;29;20019;-90
2023/06/24 04:25:55;;;;;;;11.50;7.85;;;;;;;;;;2045612;29;20043;-90
2023/06/24 04:26:55;;;;;;;11.50;8.25;;;;;;;;;;2049191;29;20371;-90
2023/06/24 04:27:55;;;;;;;11.73;8.27;;;;;;;;;;2049060;29;20106;-90
2023/06/24 04:28:56;;;;;;;8.57;7.05;;;;;;;;;;2048062;29;20027;-90
2023/06/24 04:29:56;;;;;;;13.35;7.85;;;;;;;;;;2040160;29;20508;-89
2023/06/24 04:30:57;;;;;;;8.95;7.15;;;;;;;;;;2048327;29;20400;-90
2023/06/24 04:31:58;;;;;;;9.13;7.07;;;;;;;;;;2038979;29;20110;-90
2023/06/24 04:32:58;;;;;;;8.23;6.88;;;;;;;;;;2047626;29;20272;-89
2023/06/24 04:33:58;;;;;;;10.30;7.10;;;;;;;;;;2042635;29;20544;-90
2023/06/24 04:35:02;;;;;;;10.65;7.60;;;;;;;;;;2040836;29;20042;-91
2023/06/24 04:36:03;;;;;;;10.20;7.00;;;;;;;;;;2040428;29;20024;-92
2023/06/24 04:37:03;;;;;;;14.32;7.45;;;;;;;;;;2040710;29;20041;-91
2023/06/24 04:38:04;;;;;;;14.15;7.63;;;;;;;;;;2055141;28;20037;-91
2023/06/24 04:39:04;;;;;;;10.60;6.97;;;;;;;;;;2048421;29;20125;-91
2023/06/24 04:40:14;;;;;;;8.48;6.55;;;;;;;;;;2032565;29;20075;-92
2023/06/24 04:41:14;;;;;;;10.98;6.95;;;;;;;;;;2033635;29;20115;-91
2023/06/24 04:42:15;;;;;;;9.68;6.15;;;;;;;;;;2032560;29;20036;-91
2023/06/24 04:43:15;;;;;;;6.85;5.80;;;;;;;;;;2040389;29;20480;-91
2023/06/24 04:44:15;;;;;;;10.52;5.75;;;;;;;;;;2040731;29;20032;-91
2023/06/24 04:45:16;;;;;;;13.50;6.18;;;;;;;;;;2040673;29;20059;-91
2023/06/24 04:46:16;;;;;;;7.57;5.50;;;;;;;;;;2049093;29;20546;-90
2023/06/24 04:47:18;;;;;;;6.78;5.07;;;;;;;;;;2049041;28;20058;-90
2023/06/24 04:48:18;;;;;;;6.35;4.85;;;;;;;;;;2048693;29;20114;-90
2023/06/24 04:49:19;;;;;;;5.28;4.78;;;;;;;;;;2048737;29;20027;-91
2023/06/24 04:50:19;;;;;;;6.93;4.72;;;;;;;;;;2048942;29;20117;-91
2023/06/24 04:51:19;;;;;;;7.75;5.38;;;;;;;;;;2048529;29;20102;-91
2023/06/24 04:52:21;;;;;;;5.97;4.85;;;;;;;;;;2047693;29;20078;-90
2023/06/24 04:53:21;;;;;;;6.00;4.82;;;;;;;;;;2047688;29;20047;-90
2023/06/24 04:54:22;;;;;;;7.82;5.45;;;;;;;;;;2048087;29;20023;-90
2023/06/24 04:55:22;;;;;;;5.63;4.88;;;;;;;;;;2048206;29;20074;-91
2023/06/24 04:56:24;;;;;;;6.43;4.70;;;;;;;;;;2048479;28;20129;-90
2023/06/24 04:57:29;;;;;;;6.53;5.43;;;;;;;;;;2048753;28;20110;-88
2023/06/24 04:58:29;;;;;;;7.22;5.22;;;;;;;;;;2048387;28;20043;-89
2023/06/24 04:59:29;;;;;;;6.80;4.95;;;;;;;;;;2048490;29;20248;-87
2023/06/24 05:00:30;;;;;;;7.63;5.07;;;;;;;;;;2045208;29;20047;-89
2023/06/24 05:01:30;;;;;;;6.13;5.13;;;;;;;;;;2047618;29;20040;-89
2023/06/24 05:02:31;;;;;;;7.53;5.03;;;;;;;;;;2047252;29;20479;-89
2023/06/24 05:03:31;;;;;;;7.85;4.70;;;;;;;;;;1693684;29;10351340;-90
2023/06/24 05:04:32;;;;;;;13.52;5.97;;;;;;;;;;2047378;29;20042;-90
2023/06/24 05:05:32;;;;;;;4.97;4.40;;;;;;;;;;2048188;29;20499;-88
2023/06/24 05:06:32;;;;;;;5.25;4.45;;;;;;;;;;2048197;28;20479;-92
2023/06/24 05:07:33;;;;;;;5.70;4.97;;;;;;;;;;2047459;29;20418;-89
2023/06/24 05:08:33;;;;;;;6.47;4.93;;;;;;;;;;2039531;29;20042;-89
2023/06/24 05:09:37;;;;;;;7.05;4.78;;;;;;;;;;2039302;29;20040;-89
2023/06/24 05:10:37;;;;;;;5.82;4.55;;;;;;;;;;2047409;29;20538;-89
2023/06/24 05:11:38;;;;;;;6.40;4.80;;;;;;;;;;1684421;29;10423710;-90
2023/06/24 05:12:38;;;;;;;8.15;5.13;;;;;;;;;;2047539;29;20034;-90
2023/06/24 05:13:40;;;;;;;5.38;4.88;;;;;;;;;;2047658;29;20490;-90
2023/06/24 05:14:40;;;;;;;7.45;5.20;;;;;;;;;;2047380;29;20095;-90
2023/06/24 05:15:41;;;;;;;9.23;5.03;;;;;;;;;;2047479;29;20114;-90
2023/06/24 05:16:41;;;;;;;7.45;5.55;;;;;;;;;;2047901;29;20037;-90
2023/06/24 05:17:42;;;;;;;8.95;5.25;;;;;;;;;;2048292;28;20507;-90
2023/06/24 05:18:44;;;;;;;7.65;5.32;;;;;;;;;;2047944;29;20039;-89
2023/06/24 05:19:48;;;;;;;5.55;4.75;;;;;;;;;;2048291;28;20038;-91
2023/06/24 05:20:52;;;;;;;5.50;4.97;;;;;;;;;;2048103;28;20484;-91
2023/06/24 05:21:52;;;;;;;6.65;4.63;;;;;;;;;;2047345;29;20023;-91
2023/06/24 05:22:53;;;;;;;4.90;4.40;;;;;;;;;;2047386;29;20197;-90
2023/06/24 05:23:53;;;;;;;9.05;5.38;;;;;;;;;;2047916;28;20135;-90
2023/06/24 05:24:54;;;;;;;11.20;7.03;;;;;;;;;;2048043;29;20059;-90
2023/06/24 05:25:55;;;;;;;9.15;6.57;;;;;;;;;;2047662;29;20019;-91
2023/06/24 05:26:55;;;;;;;5.72;5.07;;;;;;;;;;2047670;29;20471;-90
2023/06/24 05:27:56;;;;;;;11.77;8.68;;;;;;;;;;2047835;29;20198;-90
2023/06/24 05:28:56;;;;;;;7.10;5.57;;;;;;;;;;2047772;29;20031;-90
2023/06/24 05:29:57;;;;;;;5.68;4.93;;;;;;;;;;2047622;29;20027;-90
2023/06/24 05:31:00;;;;;;;10.50;5.32;;;;;;;;;;2048546;28;20440;-90
2023/06/24 05:32:03;;;;;;;6.72;5.57;;;;;;;;;;2048523;29;20392;-91
2023/06/24 05:33:03;;;;;;;7.38;5.78;;;;;;;;;;2047787;29;20441;-90
2023/06/24 05:34:04;;;;;;;9.38;6.85;;;;;;;;;;2047806;29;20106;-90
2023/06/24 05:35:04;;;;;;;7.13;5.47;;;;;;;;;;2047966;29;20551;-90
2023/06/24 05:36:06;;;;;;;9.13;6.15;;;;;;;;;;2047886;29;20500;-91
2023/06/24 05:37:08;;;;;;;9.80;5.70;;;;;;;;;;2049707;28;20089;-91
2023/06/24 05:38:08;;;;;;;8.70;5.50;;;;;;;;;;2051512;29;20097;-91
2023/06/24 05:39:09;;;;;;;7.15;5.45;;;;;;;;;;2050407;29;20074;-90
2023/06/24 05:40:12;;;;;;;7.32;5.30;;;;;;;;;;2055787;29;20059;-89
2023/06/24 05:41:12;;;;;;;8.38;4.93;;;;;;;;;;2048499;28;20020;-91
2023/06/24 05:42:13;;;;;;;8.25;5.20;;;;;;;;;;2044440;28;20222;-91
2023/06/24 05:43:13;;;;;;;6.45;5.22;;;;;;;;;;2047650;29;20097;-91
2023/06/24 05:44:14;;;;;;;7.60;5.82;;;;;;;;;;2048006;29;20035;-89
2023/06/24 05:45:14;;;;;;;5.90;5.30;;;;;;;;;;2048061;29;20027;-90
2023/06/24 05:46:15;;;;;;;5.28;4.78;;;;;;;;;;2047660;28;20465;-90
2023/06/24 05:47:17;;;;;;;5.30;4.68;;;;;;;;;;2048259;29;20027;-89
2023/06/24 05:48:18;;;;;;;6.25;5.57;;;;;;;;;;2052687;28;20047;-91
2023/06/24 05:49:18;;;;;;;5.15;4.60;;;;;;;;;;2048124;29;20047;-91
2023/06/24 05:50:22;;;;;;;5.93;5.00;;;;;;;;;;2048187;29;20065;-90
2023/06/24 05:51:22;;;;;;;7.35;4.90;;;;;;;;;;2047951;29;20480;-91
2023/06/24 05:52:23;;;;;;;6.50;5.03;;;;;;;;;;2047942;29;20357;-91
2023/06/24 05:53:24;;;;;;;8.60;5.57;;;;;;;;;;2047777;29;20027;-91
2023/06/24 05:54:27;;;;;;;8.15;5.00;;;;;;;;;;2039557;29;20074;-91
2023/06/24 05:55:27;;;;;;;5.45;4.95;;;;;;;;;;2047738;29;20122;-90
2023/06/24 05:56:28;;;;;;;8.77;5.35;;;;;;;;;;2048514;29;20487;-90
2023/06/24 05:57:28;;;;;;;11.02;5.85;;;;;;;;;;2047890;29;20023;-90
2023/06/24 05:58:28;;;;;;;7.28;5.20;;;;;;;;;;2049670;29;20054;-89
2023/06/24 05:59:29;;;;;;;5.65;4.90;;;;;;;;;;2056311;29;20062;-89
2023/06/24 06:00:29;;;;;;;10.00;5.47;;;;;;;;;;2058126;28;20130;-89
2023/06/24 06:01:30;;;;;;;6.00;5.40;;;;;;;;;;2049682;29;20027;-90
2023/06/24 06:02:30;;;;;;;6.22;5.45;;;;;;;;;;2048882;29;20089;-91
2023/06/24 06:03:31;;;;;;;7.07;5.30;;;;;;;;;;2048757;29;20340;-90
2023/06/24 06:04:32;;;;;;;8.40;6.60;;;;;;;;;;2048916;28;20542;-90
2023/06/24 06:05:32;;;;;;;17.90;8.75;;;;;;;;;;2048109;29;20035;-90
2023/06/24 06:06:33;;;;;;;7.65;5.03;;;;;;;;;;2047621;29;20138;-89
2023/06/24 06:07:34;;;;;;;8.38;5.65;;;;;;;;;;2047249;29;20046;-90
2023/06/24 06:08:35;;;;;;;5.53;4.72;;;;;;;;;;2047536;29;20031;-90
2023/06/24 06:09:35;;;;;;;7.38;5.60;;;;;;;;;;2048227;29;20113;-90
2023/06/24 06:10:36;;;;;;;22.60;11.63;;;;;;;;;;2047691;29;20086;-90